Portland, Oregon
Traffic Map
Current Weather Conditions
Portland, Oregon
Broken Clouds Smoke
Broken Clouds
74°
Feels Like: 74°
Wind Chill: 74° Ceiling: 4000
Heat Index: 74° Visibility: 5mi
Dew Point: 58° Wind: 5mph
Humidity: 57% Direction: 310° (NW)
Pressure: 29.92in Gusts: 0mph
Raw Report DataKPDX 151753Z 31004KT 5SM FU BKN040 23/14 A2992 RMK AO2 SLP131 FU BKN040 T02330144 10233 20178 58002
Traffic Incident Summary
Active as of:
Severity:
Category:
InformationThere was an issue retrieving the traffic information for this location. Please try a different location or try again shortly.
Advertisements